createdAt,value
2023-05-12T00:00:31.757Z,96615.34
2023-05-12T00:03:03.795Z,96612.97
2023-05-12T00:05:30.769Z,96618.31
2023-05-12T00:07:59.624Z,96610.59
2023-05-12T00:10:30.002Z,96609.50
2023-05-12T00:12:59.038Z,96612.97
2023-05-12T00:15:30.637Z,96617.97
2023-05-12T00:17:57.226Z,96615.19
2023-05-12T00:20:23.870Z,96613.91
2023-05-12T00:22:52.629Z,96618.66
2023-05-12T00:25:19.223Z,96612.81
2023-05-12T00:27:45.844Z,96611.97
2023-05-12T00:30:17.239Z,96603.50
2023-05-12T00:32:46.350Z,96599.69
2023-05-12T00:35:12.997Z,96596.63
2023-05-12T00:37:42.712Z,96590.44
2023-05-12T00:40:09.711Z,96586.69
2023-05-12T00:42:36.533Z,96585.44
2023-05-12T00:45:04.690Z,96577.06
2023-05-12T00:47:32.351Z,96573.59
2023-05-12T00:50:01.214Z,96575.19
2023-05-12T00:52:27.964Z,96568.72
2023-05-12T00:54:55.156Z,96575.78
2023-05-12T00:57:22.857Z,96571.81
2023-05-12T00:59:51.869Z,96574.34
2023-05-12T01:02:18.466Z,96575.88
2023-05-12T01:04:45.134Z,96568.56
2023-05-12T01:07:26.606Z,96582.06
2023-05-12T01:09:56.640Z,96574.75
2023-05-12T01:12:32.399Z,96579.41
2023-05-12T01:14:59.477Z,96571.47
2023-05-12T01:17:33.342Z,96573.75
2023-05-12T01:20:04.887Z,96578.41
2023-05-12T01:22:33.766Z,96582.53
2023-05-12T01:25:15.307Z,96577.13
2023-05-12T01:27:43.217Z,96571.88
2023-05-12T01:30:16.589Z,96582.13
2023-05-12T01:32:44.213Z,96575.28
2023-05-12T01:35:13.140Z,96572.66
2023-05-12T01:37:41.948Z,96583.66
2023-05-12T01:40:09.256Z,96581.19
2023-05-12T01:42:40.042Z,96575.00
2023-05-12T01:45:10.082Z,96583.16
2023-05-12T01:47:36.659Z,96573.16
2023-05-12T01:50:03.430Z,96577.31
2023-05-12T01:52:34.858Z,96586.19
2023-05-12T01:55:01.463Z,96581.19
2023-05-12T01:57:30.309Z,96577.72
2023-05-12T01:59:57.002Z,96579.34
2023-05-12T02:02:25.801Z,96577.22
2023-05-12T02:04:52.358Z,96586.13
2023-05-12T02:07:18.920Z,96579.25
2023-05-12T02:09:50.940Z,96581.19
2023-05-12T02:12:17.721Z,96581.47
2023-05-12T02:14:46.513Z,96586.03
2023-05-12T02:17:13.203Z,96582.22
2023-05-12T02:19:39.748Z,96582.06
2023-05-12T02:22:06.364Z,96582.72
2023-05-12T02:24:35.439Z,96580.94
2023-05-12T02:27:02.371Z,96581.44
2023-05-12T02:29:28.893Z,96579.34
2023-05-12T02:31:59.724Z,96585.50
2023-05-12T02:34:26.353Z,96580.44
2023-05-12T02:36:55.399Z,96579.34
2023-05-12T02:39:24.191Z,96578.66
2023-05-12T02:41:52.821Z,96584.31
2023-05-12T02:44:22.549Z,96579.00
2023-05-12T02:46:49.116Z,96570.13
2023-05-12T02:49:17.949Z,96566.72
2023-05-12T02:51:48.551Z,96565.03
2023-05-12T02:54:17.671Z,96570.88
2023-05-12T02:56:47.361Z,96570.34
2023-05-12T02:59:18.789Z,96573.41
2023-05-12T03:01:47.638Z,96570.25
2023-05-12T03:04:16.756Z,96568.31
2023-05-12T03:06:43.360Z,96568.38
2023-05-12T03:09:10.124Z,96570.50
2023-05-12T03:11:39.108Z,96565.31
2023-05-12T03:14:05.828Z,96566.44
2023-05-12T03:16:32.381Z,96570.31
2023-05-12T03:18:59.035Z,96572.91
2023-05-12T03:21:30.136Z,96563.00
2023-05-12T03:23:59.176Z,96556.97
2023-05-12T03:26:28.208Z,96565.78
2023-05-12T03:28:54.796Z,96564.59
2023-05-12T03:31:21.633Z,96563.41
2023-05-12T03:33:48.181Z,96559.66
2023-05-12T03:36:14.695Z,96561.88
2023-05-12T03:38:41.233Z,96557.72
2023-05-12T03:41:08.478Z,96555.22
2023-05-12T03:43:37.483Z,96558.59
2023-05-12T03:46:04.300Z,96551.22
2023-05-12T03:48:31.123Z,96557.16
2023-05-12T03:51:00.407Z,96551.81
2023-05-12T03:53:29.637Z,96559.75
2023-05-12T03:55:58.431Z,96555.09
2023-05-12T03:58:27.221Z,96549.09
2023-05-12T04:00:57.095Z,96548.31
2023-05-12T04:03:28.340Z,96557.50
2023-05-12T04:06:01.114Z,96544.78
2023-05-12T04:08:28.401Z,96538.59
2023-05-12T04:11:04.938Z,96544.34
2023-05-12T04:13:32.914Z,96539.13
2023-05-12T04:16:00.090Z,96549.34
2023-05-12T04:18:31.985Z,96547.25
2023-05-12T04:21:05.673Z,96540.19
2023-05-12T04:23:32.376Z,96544.69
2023-05-12T04:25:58.923Z,96546.75
2023-05-12T04:28:29.063Z,96557.81
2023-05-12T04:30:57.865Z,96558.66
2023-05-12T04:33:24.577Z,96555.53
2023-05-12T04:35:56.102Z,96554.25
2023-05-12T04:38:22.757Z,96557.91
2023-05-12T04:40:49.308Z,96557.66
2023-05-12T04:45:45.470Z,96559.69
2023-05-12T04:48:12.027Z,96559.50
2023-05-12T04:50:40.971Z,96565.88
2023-05-12T04:53:13.780Z,96559.09
2023-05-12T04:55:45.799Z,96565.69
2023-05-12T04:58:16.150Z,96561.19
2023-05-12T05:00:45.337Z,96567.38
2023-05-12T05:03:12.141Z,96571.28
2023-05-12T05:05:41.013Z,96567.13
2023-05-12T05:08:07.765Z,96572.56
2023-05-12T05:10:34.380Z,96573.13
2023-05-12T05:13:03.165Z,96575.25
2023-05-12T05:15:29.875Z,96571.13
2023-05-12T05:17:56.625Z,96575.78
2023-05-12T05:20:27.842Z,96575.25
2023-05-12T05:22:57.713Z,96576.03
2023-05-12T05:25:27.947Z,96580.28
2023-05-12T05:27:58.170Z,96579.78
2023-05-12T05:30:27.299Z,96577.72
2023-05-12T05:32:56.175Z,96580.09
2023-05-12T05:35:27.670Z,96582.38
2023-05-12T05:37:54.769Z,96589.50
2023-05-12T05:40:22.005Z,96585.63
2023-05-12T05:42:48.889Z,96598.00
2023-05-12T05:45:15.706Z,96599.25
2023-05-12T05:47:42.368Z,96593.75
2023-05-12T05:50:09.365Z,96598.22
2023-05-12T05:52:35.904Z,96594.25
2023-05-12T05:55:05.024Z,96595.84
2023-05-12T05:57:34.072Z,96590.28
2023-05-12T06:00:00.606Z,96596.19
2023-05-12T06:02:28.040Z,96593.75
2023-05-12T06:04:54.655Z,96596.72
2023-05-12T06:07:23.744Z,96605.06
2023-05-12T06:09:50.322Z,96607.53
2023-05-12T06:12:16.911Z,96604.28
2023-05-12T06:14:45.834Z,96599.84
2023-05-12T06:17:14.730Z,96602.66
2023-05-12T06:19:47.839Z,96602.72
2023-05-12T06:22:17.192Z,96603.22
2023-05-12T06:24:48.321Z,96607.69
2023-05-12T06:27:14.951Z,96602.72
2023-05-12T06:29:46.305Z,96609.50
2023-05-12T06:32:12.879Z,96602.59
2023-05-12T06:34:41.671Z,96606.06
2023-05-12T06:37:08.187Z,96600.69
2023-05-12T06:39:42.015Z,96602.41
2023-05-12T06:42:08.666Z,96608.59
2023-05-12T06:44:38.477Z,96607.75
2023-05-12T06:47:08.618Z,96612.06
2023-05-12T06:49:40.480Z,96607.13
2023-05-12T06:52:09.573Z,96604.38
2023-05-12T06:54:36.167Z,96609.00
2023-05-12T06:57:02.729Z,96607.38
2023-05-12T06:59:31.834Z,96605.84
2023-05-12T07:02:00.931Z,96609.66
2023-05-12T07:04:30.000Z,96615.84
2023-05-12T07:06:56.804Z,96608.88
2023-05-12T07:09:23.373Z,96606.22
2023-05-12T07:11:50.132Z,96604.03
2023-05-12T07:14:17.717Z,96610.00
2023-05-12T07:16:44.495Z,96601.22
2023-05-12T07:19:11.067Z,96606.75
2023-05-12T07:21:38.037Z,96599.84
2023-05-12T07:24:06.958Z,96605.28
2023-05-12T07:26:33.674Z,96602.41
2023-05-12T07:29:04.048Z,96597.88
2023-05-12T07:31:30.908Z,96596.22
2023-05-12T07:33:57.589Z,96602.50
2023-05-12T07:36:26.741Z,96599.78
2023-05-12T07:38:53.296Z,96596.00
2023-05-12T07:41:22.057Z,96594.22
2023-05-12T07:43:48.660Z,96590.06
2023-05-12T07:46:18.261Z,96590.56
2023-05-12T07:48:44.940Z,96591.69
2023-05-12T07:51:11.590Z,96598.31
2023-05-12T07:53:38.194Z,96595.56
2023-05-12T07:56:05.671Z,96582.75
2023-05-12T07:58:32.308Z,96584.66
2023-05-12T08:01:00.352Z,96591.34
2023-05-12T08:03:31.816Z,96595.78
2023-05-12T08:05:58.588Z,96593.97
2023-05-12T08:08:25.176Z,96589.06
2023-05-12T08:10:53.948Z,96593.19
2023-05-12T08:13:22.778Z,96597.31
2023-05-12T08:15:50.084Z,96599.38
2023-05-12T08:18:16.673Z,96602.00
2023-05-12T08:20:49.370Z,96604.50
2023-05-12T08:23:19.033Z,96603.81
2023-05-12T08:25:46.314Z,96598.06
2023-05-12T08:28:12.986Z,96598.50
2023-05-12T08:30:45.567Z,96599.94
2023-05-12T08:33:12.721Z,96602.63
2023-05-12T08:35:39.548Z,96597.06
2023-05-12T08:38:10.960Z,96599.25
2023-05-12T08:41:08.556Z,96604.53
2023-05-12T08:43:44.004Z,96599.25
2023-05-12T08:46:16.140Z,96592.19
2023-05-12T08:48:52.536Z,96595.41
2023-05-12T08:51:22.072Z,96597.00
2023-05-12T08:53:50.166Z,96598.03
2023-05-12T08:58:53.424Z,96592.31
2023-05-12T09:01:23.162Z,96589.88
2023-05-12T09:03:53.680Z,96586.41
2023-05-12T09:06:22.921Z,96583.53
2023-05-12T09:08:53.958Z,96576.50
2023-05-12T09:11:22.048Z,96571.00
2023-05-12T09:14:07.425Z,96579.56
2023-05-12T09:16:42.307Z,96573.56
2023-05-12T09:19:11.091Z,96576.69
2023-05-12T09:21:37.905Z,96574.41
2023-05-12T09:24:07.831Z,96577.13
2023-05-12T09:26:52.900Z,96568.94
2023-05-12T09:29:31.942Z,96562.53
2023-05-12T09:32:04.988Z,96562.28
2023-05-12T09:34:35.663Z,96560.72
2023-05-12T09:37:05.288Z,96562.94
2023-05-12T09:39:32.284Z,96564.34
2023-05-12T09:42:01.543Z,96569.94
2023-05-12T09:44:33.049Z,96565.69
2023-05-12T09:47:10.205Z,96560.53
2023-05-12T09:49:37.207Z,96556.94
2023-05-12T09:52:09.287Z,96555.06
2023-05-12T09:54:39.706Z,96552.97
2023-05-12T09:57:09.115Z,96556.44
2023-05-12T09:59:40.989Z,96549.03
2023-05-12T10:02:11.846Z,96560.66
2023-05-12T10:04:50.440Z,96569.25
2023-05-12T10:07:24.004Z,96565.00
2023-05-12T10:09:59.527Z,96559.69
2023-05-12T10:12:26.096Z,96564.50
2023-05-12T10:14:56.309Z,96557.41
2023-05-12T10:17:26.679Z,96563.75
2023-05-12T10:19:54.167Z,96558.16
2023-05-12T10:22:21.861Z,96558.94
2023-05-12T10:24:51.708Z,96560.16
2023-05-12T10:27:18.933Z,96560.53
2023-05-12T10:29:48.160Z,96550.53
2023-05-12T10:32:15.759Z,96557.16
2023-05-12T10:34:42.526Z,96547.53
2023-05-12T10:37:11.497Z,96541.94
2023-05-12T10:39:54.960Z,96539.59
2023-05-12T10:42:26.461Z,96545.59
2023-05-12T10:44:58.918Z,96545.78
2023-05-12T10:47:39.775Z,96539.59
2023-05-12T10:50:13.663Z,96539.53
2023-05-12T10:53:03.528Z,96538.25
2023-05-12T10:55:35.400Z,96529.78
2023-05-12T10:58:13.138Z,96522.50
2023-05-12T11:00:52.663Z,96525.47
2023-05-12T11:03:25.726Z,96528.91
2023-05-12T11:06:07.163Z,96534.44
2023-05-12T11:08:37.853Z,96534.81
2023-05-12T11:11:04.706Z,96537.66
2023-05-12T11:13:33.526Z,96535.66
2023-05-12T11:16:00.201Z,96536.06
2023-05-12T11:18:29.206Z,96527.41
2023-05-12T11:20:58.058Z,96534.50
2023-05-12T11:23:33.932Z,96533.91
2023-05-12T11:26:01.039Z,96536.91
2023-05-12T11:28:27.862Z,96540.00
2023-05-12T11:30:55.499Z,96533.50
2023-05-12T11:33:23.232Z,96529.06
2023-05-12T11:35:50.326Z,96532.50
2023-05-12T11:38:19.629Z,96532.91
2023-05-12T11:40:48.427Z,96535.06
2023-05-12T11:43:20.734Z,96524.03
2023-05-12T11:45:47.634Z,96527.72
2023-05-12T11:48:14.858Z,96530.09
2023-05-12T11:50:46.756Z,96518.72
2023-05-12T11:53:17.535Z,96524.00
2023-05-12T11:55:54.841Z,96531.31
2023-05-12T11:58:30.736Z,96529.34
2023-05-12T12:01:08.365Z,96523.66
2023-05-12T12:03:47.673Z,96516.69
2023-05-12T12:06:14.761Z,96529.13
2023-05-12T12:09:02.164Z,96531.22
2023-05-12T12:11:30.624Z,96521.97
2023-05-12T12:14:00.968Z,96525.72
2023-05-12T12:16:29.453Z,96524.03
2023-05-12T12:18:58.605Z,96519.13
2023-05-12T12:21:27.823Z,96515.41
2023-05-12T12:23:56.753Z,96511.44
2023-05-12T12:26:23.339Z,96519.78
2023-05-12T12:28:50.061Z,96511.06
2023-05-12T12:31:18.783Z,96511.75
2023-05-12T12:33:47.706Z,96510.31
2023-05-12T12:36:17.551Z,96507.00
2023-05-12T12:38:44.772Z,96508.13
2023-05-12T12:41:11.395Z,96510.16
2023-05-12T12:43:40.171Z,96510.88
2023-05-12T12:46:06.740Z,96501.16
2023-05-12T12:48:35.659Z,96502.72
2023-05-12T12:51:02.225Z,96507.31
2023-05-12T12:53:30.999Z,96509.47
2023-05-12T12:55:57.555Z,96511.28
2023-05-12T12:58:24.041Z,96516.09
2023-05-12T13:00:55.537Z,96507.34
2023-05-12T13:03:24.608Z,96510.94
2023-05-12T13:05:51.251Z,96508.56
2023-05-12T13:08:17.810Z,96502.94
2023-05-12T13:10:44.416Z,96504.75
2023-05-12T13:13:12.093Z,96499.81
2023-05-12T13:15:39.380Z,96493.91
2023-05-12T13:18:06.010Z,96491.22
2023-05-12T13:20:36.352Z,96489.50
2023-05-12T13:23:07.795Z,96492.25
2023-05-12T13:25:34.374Z,96486.91
2023-05-12T13:28:03.400Z,96480.63
2023-05-12T13:30:30.003Z,96477.34
2023-05-12T13:32:56.706Z,96477.31
2023-05-12T13:35:25.611Z,96470.78
2023-05-12T13:37:52.113Z,96472.47
2023-05-12T13:40:21.098Z,96474.28
2023-05-12T13:42:47.923Z,96471.75
2023-05-12T13:45:19.462Z,96472.56
2023-05-12T13:47:51.084Z,96470.59
2023-05-12T13:50:22.426Z,96473.94
2023-05-12T13:52:51.538Z,96480.56
2023-05-12T13:55:21.583Z,96482.34
2023-05-12T13:57:53.522Z,96474.28
2023-05-12T14:00:20.512Z,96479.63
2023-05-12T14:02:47.220Z,96477.50
2023-05-12T14:05:14.028Z,96477.72
2023-05-12T14:07:42.916Z,96478.78
2023-05-12T14:10:10.399Z,96481.25
2023-05-12T14:12:37.137Z,96478.94
2023-05-12T14:15:21.876Z,96476.38
2023-05-12T14:17:52.869Z,96477.66
2023-05-12T14:20:19.476Z,96473.84
2023-05-12T14:22:46.224Z,96465.91
2023-05-12T14:25:17.480Z,96459.97
2023-05-12T14:27:45.328Z,96463.31
2023-05-12T14:30:14.589Z,96469.94
2023-05-12T14:32:43.698Z,96468.47
2023-05-12T14:35:15.025Z,96458.06
2023-05-12T14:37:41.583Z,96460.25
2023-05-12T14:40:12.146Z,96471.38
2023-05-12T14:42:39.260Z,96460.19
2023-05-12T14:45:06.652Z,96460.47
2023-05-12T14:47:35.515Z,96466.34
2023-05-12T14:50:02.273Z,96467.88
2023-05-12T14:52:33.899Z,96469.25
2023-05-12T14:55:00.441Z,96464.63
2023-05-12T14:57:29.363Z,96471.19
2023-05-12T15:00:00.794Z,96468.69
2023-05-12T15:02:33.529Z,96475.28
2023-05-12T15:05:04.999Z,96474.88
2023-05-12T15:07:31.717Z,96476.16
2023-05-12T15:10:00.864Z,96483.75
2023-05-12T15:12:29.821Z,96467.94
2023-05-12T15:14:56.519Z,96481.78
2023-05-12T15:17:28.218Z,96479.09
2023-05-12T15:19:55.872Z,96470.59
2023-05-12T15:22:22.524Z,96467.59
2023-05-12T15:24:49.155Z,96478.47
2023-05-12T15:27:15.746Z,96475.78
2023-05-12T15:29:45.364Z,96465.31
2023-05-12T15:32:14.557Z,96456.31
2023-05-12T15:34:41.159Z,96466.16
2023-05-12T15:37:12.439Z,96476.66
2023-05-12T15:39:43.979Z,96469.78
2023-05-12T15:42:12.410Z,96477.94
2023-05-12T15:44:39.221Z,96471.56
2023-05-12T15:47:06.140Z,96478.28
2023-05-12T15:49:32.773Z,96474.28
2023-05-12T15:52:02.445Z,96484.84
2023-05-12T15:54:30.450Z,96474.22
2023-05-12T15:56:57.002Z,96473.47
2023-05-12T15:59:23.591Z,96478.19
2023-05-12T16:01:53.262Z,96472.47
2023-05-12T16:04:20.064Z,96470.84
2023-05-12T16:06:48.958Z,96471.13
2023-05-12T16:09:15.756Z,96467.00
2023-05-12T16:11:42.701Z,96467.34
2023-05-12T16:14:11.750Z,96469.09
2023-05-12T16:16:43.581Z,96472.78
2023-05-12T16:19:10.230Z,96465.38
2023-05-12T16:21:42.500Z,96464.56
2023-05-12T16:24:15.445Z,96474.34
2023-05-12T16:26:42.147Z,96481.81
2023-05-12T16:29:11.204Z,96471.38
2023-05-12T16:31:37.957Z,96486.13
2023-05-12T16:34:04.661Z,96482.50
2023-05-12T16:36:33.444Z,96490.47
2023-05-12T16:39:02.967Z,96489.41
2023-05-12T16:41:31.931Z,96477.25
2023-05-12T16:43:58.578Z,96484.84
2023-05-12T16:46:25.193Z,96484.69
2023-05-12T16:48:54.560Z,96474.50
2023-05-12T16:51:24.483Z,96486.25
2023-05-12T16:53:53.283Z,96482.00
2023-05-12T16:56:20.004Z,96479.81
2023-05-12T16:58:48.837Z,96481.88
2023-05-12T17:01:15.443Z,96478.41
2023-05-12T17:03:42.108Z,96475.31
2023-05-12T17:06:11.165Z,96473.00
2023-05-12T17:08:40.073Z,96482.53
2023-05-12T17:11:06.691Z,96476.31
2023-05-12T17:13:36.736Z,96483.41
2023-05-12T17:16:04.376Z,96480.63
2023-05-12T17:18:31.480Z,96482.91
2023-05-12T17:20:58.939Z,96489.72
2023-05-12T17:23:28.290Z,96483.19
2023-05-12T17:25:54.860Z,96489.16
2023-05-12T17:28:22.127Z,96481.09
2023-05-12T17:30:50.094Z,96492.91
2023-05-12T17:33:17.308Z,96486.41
2023-05-12T17:35:48.929Z,96486.59
2023-05-12T17:38:20.884Z,96492.13
2023-05-12T17:40:47.448Z,96496.53
2023-05-12T17:43:15.776Z,96501.69
2023-05-12T17:45:44.789Z,96504.66
2023-05-12T17:48:11.466Z,96515.50
2023-05-12T17:50:40.999Z,96527.66
2023-05-12T17:53:07.589Z,96533.72
2023-05-12T17:55:36.395Z,96529.16
2023-05-12T17:58:05.199Z,96529.59
2023-05-12T18:00:31.813Z,96528.72
2023-05-12T18:03:03.399Z,96539.34
2023-05-12T18:05:30.182Z,96532.19
2023-05-12T18:07:58.826Z,96533.09
2023-05-12T18:10:27.617Z,96534.94
2023-05-12T18:12:56.454Z,96539.66
2023-05-12T18:15:24.500Z,96533.31
2023-05-12T18:17:53.356Z,96538.16
2023-05-12T18:20:20.165Z,96544.34
2023-05-12T18:22:50.797Z,96542.19
2023-05-12T18:25:19.648Z,96544.47
2023-05-12T18:27:48.974Z,96547.06
2023-05-12T18:30:15.748Z,96548.09
2023-05-12T18:32:42.465Z,96555.47
2023-05-12T18:35:09.405Z,96557.47
2023-05-12T18:37:38.685Z,96558.50
2023-05-12T18:40:06.940Z,96561.50
2023-05-12T18:42:34.415Z,96559.41
2023-05-12T18:45:00.988Z,96567.41
2023-05-12T18:47:27.681Z,96572.44
2023-05-12T18:49:54.314Z,96575.94
2023-05-12T18:52:23.338Z,96578.28
2023-05-12T18:54:50.058Z,96576.47
2023-05-12T18:57:19.396Z,96579.47
2023-05-12T18:59:46.161Z,96580.69
2023-05-12T19:02:15.216Z,96578.44
2023-05-12T19:04:44.375Z,96583.69
2023-05-12T19:07:15.205Z,96587.78
2023-05-12T19:09:42.750Z,96583.34
2023-05-12T19:12:11.906Z,96586.66
2023-05-12T19:14:44.622Z,96580.97
2023-05-12T19:17:13.468Z,96589.34
2023-05-12T19:19:40.143Z,96591.91
2023-05-12T19:22:06.773Z,96592.06
2023-05-12T19:24:34.230Z,96603.66
2023-05-12T19:27:01.376Z,96605.69
2023-05-12T19:29:30.648Z,96608.06
2023-05-12T19:31:57.390Z,96612.56
2023-05-12T19:34:29.607Z,96612.31
2023-05-12T19:37:00.824Z,96623.66
2023-05-12T19:39:28.196Z,96626.06
2023-05-12T19:41:59.202Z,96619.69
2023-05-12T19:44:29.945Z,96627.53
2023-05-12T19:47:04.502Z,96619.91
2023-05-12T19:49:35.380Z,96622.97
2023-05-12T19:52:03.566Z,96624.22
2023-05-12T19:54:30.360Z,96631.28
2023-05-12T19:56:56.995Z,96633.41
2023-05-12T19:59:24.506Z,96632.78
2023-05-12T20:01:55.722Z,96634.72
2023-05-12T20:04:23.391Z,96637.16
2023-05-12T20:06:50.529Z,96642.53
2023-05-12T20:09:20.613Z,96641.38
2023-05-12T20:11:47.140Z,96643.91
2023-05-12T20:14:13.990Z,96642.13
2023-05-12T20:16:43.031Z,96640.25
2023-05-12T20:19:09.747Z,96645.47
2023-05-12T20:21:36.569Z,96642.22
2023-05-12T20:24:05.562Z,96645.81
2023-05-12T20:26:32.123Z,96645.16
2023-05-12T20:29:01.724Z,96658.88
2023-05-12T20:31:31.394Z,96648.22
2023-05-12T20:34:00.250Z,96658.00
2023-05-12T20:36:29.904Z,96648.88
2023-05-12T20:38:58.796Z,96649.13
2023-05-12T20:41:25.368Z,96653.38
2023-05-12T20:43:52.003Z,96648.06
2023-05-12T20:46:21.091Z,96646.97
2023-05-12T20:48:47.726Z,96648.41
2023-05-12T20:51:14.704Z,96652.00
2023-05-12T20:53:43.439Z,96662.41
2023-05-12T20:56:14.808Z,96655.34
2023-05-12T20:58:44.458Z,96661.66
2023-05-12T21:01:11.177Z,96654.94
2023-05-12T21:03:37.968Z,96656.03
2023-05-12T21:06:05.525Z,96661.91
2023-05-12T21:08:36.813Z,96666.28
2023-05-12T21:11:05.636Z,96665.63
2023-05-12T21:13:32.185Z,96667.03
2023-05-12T21:15:58.734Z,96675.88
2023-05-12T21:18:28.061Z,96660.84
2023-05-12T21:20:59.160Z,96665.66
2023-05-12T21:23:28.080Z,96663.34
2023-05-12T21:25:54.823Z,96666.19
2023-05-12T21:28:22.065Z,96663.34
2023-05-12T21:30:51.133Z,96666.41
2023-05-12T21:33:17.682Z,96676.44
2023-05-12T21:35:44.264Z,96660.97
2023-05-12T21:38:15.608Z,96661.06
2023-05-12T21:40:48.951Z,96666.41
2023-05-12T21:43:20.183Z,96671.84
2023-05-12T21:45:49.013Z,96671.75
2023-05-12T21:48:15.590Z,96671.84
2023-05-12T21:50:42.181Z,96676.75
2023-05-12T21:53:08.744Z,96675.53
2023-05-12T21:55:37.439Z,96687.03
2023-05-12T21:58:06.272Z,96688.13
2023-05-12T22:00:35.067Z,96688.22
2023-05-12T22:03:01.742Z,96690.72
2023-05-12T22:05:28.408Z,96684.72
2023-05-12T22:07:57.364Z,96689.50
2023-05-12T22:10:23.973Z,96698.81
2023-05-12T22:12:55.449Z,96703.28
2023-05-12T22:15:22.490Z,96699.13
2023-05-12T22:17:49.620Z,96701.22
2023-05-12T22:20:19.142Z,96704.44
2023-05-12T22:22:48.257Z,96709.22
2023-05-12T22:25:17.078Z,96708.00
2023-05-12T22:27:43.903Z,96708.88
2023-05-12T22:30:13.184Z,96707.78
2023-05-12T22:32:39.807Z,96712.47
2023-05-12T22:35:09.146Z,96710.94
2023-05-12T22:37:36.012Z,96712.31
2023-05-12T22:40:02.596Z,96707.66
2023-05-12T22:42:29.233Z,96715.50
2023-05-12T22:44:57.400Z,96712.03
2023-05-12T22:47:24.183Z,96712.38
2023-05-12T22:49:50.716Z,96716.56
2023-05-12T22:52:21.909Z,96715.16
2023-05-12T22:54:52.449Z,96714.59
2023-05-12T22:57:19.379Z,96716.34
2023-05-12T22:59:45.916Z,96719.59
2023-05-12T23:02:14.953Z,96718.16
2023-05-12T23:04:44.061Z,96721.13
2023-05-12T23:07:10.858Z,96724.00
2023-05-12T23:09:39.914Z,96720.03
2023-05-12T23:12:08.877Z,96714.88
2023-05-12T23:14:37.778Z,96712.56
2023-05-12T23:17:04.376Z,96712.41
2023-05-12T23:19:30.987Z,96710.63
2023-05-12T23:21:59.720Z,96717.44
2023-05-12T23:24:28.492Z,96717.00
2023-05-12T23:26:57.509Z,96714.53
2023-05-12T23:29:24.116Z,96708.69
2023-05-12T23:31:53.459Z,96710.81
2023-05-12T23:34:20.068Z,96710.81
2023-05-12T23:36:48.816Z,96713.78
2023-05-12T23:39:17.711Z,96704.88
2023-05-12T23:41:45.615Z,96712.25
2023-05-12T23:44:12.798Z,96706.16
2023-05-12T23:46:39.555Z,96707.66
2023-05-12T23:49:09.454Z,96710.63
2023-05-12T23:51:36.490Z,96715.13
2023-05-12T23:54:03.045Z,96710.81
2023-05-12T23:56:32.062Z,96706.72
2023-05-12T23:59:02.173Z,96715.09
